Meteo Giornale » Osservazioni meteo Stati Uniti (USA) » Hermiston
ore: 10:53 - Osservazioni Meteo Hermiston
Lat. 45° 49' N Lon. 119° 15' W Alt. 194 metri s.l.m.
22 °C
Sereno
Temp. 24 Ore
8 °C
26 °C
Nord
5.5 Km/h
Dew point 6 °C
Umidità 35 %
Visibilità 10 Km
Il sole sorge alle ore 06:17
Il sole tramonta alle ore 19:37
| Data e Ora | Cielo e Fenomeni | T °C | DP °C | Um. % | Pres. hPa | Vis. km | Vento km/h | |
|---|---|---|---|---|---|---|---|---|
| Oggi h: 10:53 | Sereno | 22 | 6 | 35 | 1013 | 10 | N 5.5 | |
| Oggi h: 09:53 | Sereno | 19 | 6 | 42 | 1014 | 10 | NE 9.3 | |
| Oggi h: 08:53 | Sereno | 16 | 4 | 44 | 1014 | 10 | N 0 | |
| Oggi h: 07:53 | Sereno | 13 | 4 | 54 | 1014 | 10 | SE 7.4 | |
| Oggi h: 06:53 | Sereno | 9 | 6 | 81 | 1014 | 10 | N 5.5 | |
| Oggi h: 05:53 | Sereno | 8 | 6 | 87 | 1014 | 10 | N 5.5 | |
| Oggi h: 04:53 | Sereno | 8 | 5 | 81 | 1014 | 10 | N 5.5 | |
| Oggi h: 03:53 | Sereno | 11 | 4 | 61 | 1013 | 10 | E/SE 7.4 | |
| Oggi h: 02:53 | Sereno | 11 | 6 | 71 | 1014 | 10 | E 9.3 | |
| Oggi h: 01:53 | Sereno | 10 | 6 | 76 | 1014 | 10 | E 7.4 | |
| Oggi h: 00:53 | Sereno | 12 | 5 | 62 | 1014 | 10 | E 7.4 | |
| Ieri h: 23:53 | Sereno | 13 | 6 | 62 | 1014 | 10 | N 0 | |
| Ieri h: 22:53 | Sereno | 14 | 7 | 62 | 1014 | 10 | E/SE 7.4 | |
| Ieri h: 21:53 | Sereno | 15 | 6 | 54 | 1014 | 10 | S/SE 13 | |
| Ieri h: 20:53 | Sereno | 17 | 7 | 51 | 1014 | 10 | E 7.4 | |
| Ieri h: 19:53 | Sereno | 21 | 6 | 37 | 1014 | 10 | E 7.4 | |
| Ieri h: 18:53 | Sereno | 24 | 4 | 27 | 1014 | 10 | NE 11.1 | |
| Ieri h: 17:53 | Sereno | 26 | 3 | 22 | 1014 | 10 | N 0 | |
| Ieri h: 16:53 | Sereno | 26 | 4 | 24 | 1015 | 10 | SO 7.4 | |
| Ieri h: 15:53 | Sereno | 26 | 4 | 24 | 1015 | 10 | N 9.3 | |
| Ieri h: 14:53 | Sereno | 25 | 3 | 23 | 1016 | 10 | O/NO 11.1 | |
| Ieri h: 13:53 | Sereno | 24 | 4 | 27 | 1016 | 10 | SO 11.1 | |
| Ieri h: 12:53 | Sereno | 23 | 5 | 31 | 1017 | 10 | SO 13 | |
| Ieri h: 11:53 | Sereno | 22 | 5 | 32 | 1018 | 10 | O 11.1 | |



